DAL125 KPHX-KSFO
Flight info
| Callsign | DAL125 |
|---|---|
| Flight time | 1h 39m |
| Altitude | 40000 |
| Route | KEENS3 HRRBR CURIV J212 DECAS PMD AVE MAKRS SERFR SERFR4 |
| Aircraft | A359/H-SDE2E3GHIJ3J4J5LM1ORWXY/LB1D1 |
Departure
| Time | 2026-05-04 01:57 |
|---|---|
| Airport | Phoenix Sky Harbor International Airport (KPHX) |
Arrival
| Time | 2026-05-04 03:37 |
|---|---|
| Airport | San Francisco International Airport (KSFO) |
| Time | Latitude | Longitude | Altitude | Speed | Heading |
|---|---|---|---|---|---|
| 2026-05-04 01:39 | 33.43372 | -112.01130 | 1130 ft | 0 kts | 360° |
| 2026-05-04 01:45 | 33.43320 | -112.01130 | 1134 ft | 4 kts | 360° |
| 2026-05-04 01:46 | 33.43297 | -112.01131 | 1134 ft | 4 kts | 30° |
| 2026-05-04 01:46 | 33.43287 | -112.01152 | 1134 ft | 4 kts | 91° |
| 2026-05-04 01:46 | 33.43287 | -112.01174 | 1134 ft | 0 kts | 90° |
| 2026-05-04 01:48 | 33.43288 | -112.01173 | 1133 ft | 1 kts | 90° |
| 2026-05-04 01:49 | 33.43288 | -112.01141 | 1132 ft | 5 kts | 88° |
| 2026-05-04 01:49 | 33.43289 | -112.01089 | 1134 ft | 7 kts | 89° |
| 2026-05-04 01:49 | 33.43275 | -112.01027 | 1132 ft | 8 kts | 129° |
| 2026-05-04 01:49 | 33.43228 | -112.00977 | 1135 ft | 10 kts | 129° |
| 2026-05-04 01:50 | 33.43213 | -112.00893 | 1134 ft | 11 kts | 88° |
| 2026-05-04 01:50 | 33.43215 | -112.00791 | 1134 ft | 13 kts | 89° |
| 2026-05-04 01:50 | 33.43216 | -112.00677 | 1135 ft | 15 kts | 89° |
| 2026-05-04 01:50 | 33.43216 | -112.00551 | 1135 ft | 17 kts | 91° |
| 2026-05-04 01:51 | 33.43214 | -112.00404 | 1134 ft | 19 kts | 90° |
| 2026-05-04 01:51 | 33.43213 | -112.00241 | 1134 ft | 21 kts | 90° |
| 2026-05-04 01:51 | 33.43214 | -112.00074 | 1134 ft | 19 kts | 88° |
| 2026-05-04 01:51 | 33.43215 | -111.99908 | 1134 ft | 21 kts | 90° |
| 2026-05-04 01:52 | 33.43215 | -111.99725 | 1134 ft | 23 kts | 90° |
| 2026-05-04 01:52 | 33.43214 | -111.99564 | 1133 ft | 15 kts | 90° |
| 2026-05-04 01:52 | 33.43214 | -111.99433 | 1133 ft | 17 kts | 90° |
| 2026-05-04 01:52 | 33.43214 | -111.99401 | 1133 ft | 0 kts | 89° |
| 2026-05-04 01:54 | 33.43214 | -111.99389 | 1135 ft | 4 kts | 89° |
| 2026-05-04 01:54 | 33.43208 | -111.99356 | 1131 ft | 2 kts | 118° |
| 2026-05-04 01:54 | 33.43203 | -111.99353 | 1135 ft | 0 kts | 146° |
| 2026-05-04 01:55 | 33.43172 | -111.99345 | 1134 ft | 9 kts | 176° |
| 2026-05-04 01:55 | 33.43120 | -111.99372 | 1135 ft | 6 kts | 243° |
| 2026-05-04 01:55 | 33.43105 | -111.99424 | 1130 ft | 7 kts | 261° |
| 2026-05-04 01:56 | 33.43104 | -111.99444 | 1133 ft | 0 kts | 268° |
| 2026-05-04 01:57 | 33.43104 | -111.99480 | 1133 ft | 16 kts | 268° |
| 2026-05-04 01:57 | 33.43103 | -111.99842 | 1134 ft | 85 kts | 270° |
| 2026-05-04 01:57 | 33.43103 | -112.00906 | 1142 ft | 167 kts | 270° |
| 2026-05-04 01:57 | 33.43088 | -112.02370 | 1989 ft | 175 kts | 265° |
| 2026-05-04 01:58 | 33.42965 | -112.03818 | 2843 ft | 177 kts | 258° |
| 2026-05-04 01:58 | 33.42757 | -112.05355 | 3209 ft | 198 kts | 256° |
| 2026-05-04 01:58 | 33.42483 | -112.07060 | 3551 ft | 218 kts | 255° |
| 2026-05-04 01:58 | 33.42132 | -112.08933 | 3876 ft | 243 kts | 253° |
| 2026-05-04 01:59 | 33.41847 | -112.10247 | 4246 ft | 249 kts | 252° |
| 2026-05-04 01:59 | 33.41348 | -112.12255 | 4969 ft | 255 kts | 250° |
| 2026-05-04 01:59 | 33.40760 | -112.14275 | 5743 ft | 256 kts | 247° |
| 2026-05-04 01:59 | 33.40135 | -112.16271 | 6596 ft | 258 kts | 247° |
| 2026-05-04 02:00 | 33.39506 | -112.18315 | 7307 ft | 265 kts | 249° |
| 2026-05-04 02:00 | 33.39270 | -112.21326 | 8348 ft | 281 kts | 273° |
| 2026-05-04 02:00 | 33.39462 | -112.22868 | 8932 ft | 285 kts | 275° |
| 2026-05-04 02:00 | 33.39825 | -112.25223 | 9789 ft | 291 kts | 276° |
| 2026-05-04 02:01 | 33.40200 | -112.27633 | 10465 ft | 301 kts | 276° |
| 2026-05-04 02:01 | 33.40585 | -112.30183 | 10833 ft | 321 kts | 276° |
| 2026-05-04 02:01 | 33.40992 | -112.32900 | 11194 ft | 341 kts | 276° |
| 2026-05-04 02:01 | 33.41415 | -112.35717 | 11634 ft | 354 kts | 276° |
| 2026-05-04 02:02 | 33.41854 | -112.38653 | 12274 ft | 361 kts | 276° |
| 2026-05-04 02:02 | 33.42296 | -112.41615 | 13067 ft | 362 kts | 276° |
| 2026-05-04 02:02 | 33.42739 | -112.44594 | 13845 ft | 364 kts | 276° |
| 2026-05-04 02:02 | 33.43181 | -112.47581 | 14558 ft | 365 kts | 276° |
| 2026-05-04 02:03 | 33.43623 | -112.50578 | 15279 ft | 366 kts | 276° |
| 2026-05-04 02:03 | 33.44064 | -112.53578 | 16018 ft | 367 kts | 276° |
| 2026-05-04 02:03 | 33.44505 | -112.56590 | 16755 ft | 368 kts | 276° |
| 2026-05-04 02:03 | 33.44912 | -112.59622 | 17508 ft | 368 kts | 273° |
| 2026-05-04 02:04 | 33.45064 | -112.62684 | 18231 ft | 368 kts | 268° |
| 2026-05-04 02:04 | 33.45111 | -112.65759 | 18890 ft | 369 kts | 268° |
| 2026-05-04 02:04 | 33.45145 | -112.68796 | 19532 ft | 371 kts | 268° |
| 2026-05-04 02:04 | 33.45181 | -112.71895 | 20185 ft | 372 kts | 268° |
| 2026-05-04 02:05 | 33.45218 | -112.75002 | 20839 ft | 374 kts | 269° |
| 2026-05-04 02:05 | 33.45267 | -112.78123 | 21518 ft | 376 kts | 270° |
| 2026-05-04 02:05 | 33.45541 | -112.81250 | 22146 ft | 380 kts | 277° |
| 2026-05-04 02:05 | 33.46075 | -112.84367 | 22796 ft | 383 kts | 279° |
| 2026-05-04 02:06 | 33.46664 | -112.87486 | 23429 ft | 385 kts | 279° |
| 2026-05-04 02:06 | 33.47259 | -112.90624 | 23985 ft | 387 kts | 279° |
| 2026-05-04 02:06 | 33.47853 | -112.93776 | 24569 ft | 388 kts | 279° |
| 2026-05-04 02:06 | 33.48447 | -112.96942 | 25168 ft | 389 kts | 279° |
| 2026-05-04 02:07 | 33.49031 | -113.00066 | 25754 ft | 390 kts | 279° |
| 2026-05-04 02:07 | 33.49623 | -113.03245 | 26324 ft | 391 kts | 279° |
| 2026-05-04 02:07 | 33.50215 | -113.06429 | 26897 ft | 393 kts | 279° |
| 2026-05-04 02:07 | 33.50809 | -113.09629 | 27447 ft | 394 kts | 279° |
| 2026-05-04 02:08 | 33.51404 | -113.12837 | 28032 ft | 395 kts | 279° |
| 2026-05-04 02:08 | 33.52002 | -113.16071 | 28568 ft | 397 kts | 279° |
| 2026-05-04 02:08 | 33.52600 | -113.19311 | 29090 ft | 399 kts | 279° |
| 2026-05-04 02:08 | 33.53201 | -113.22569 | 29594 ft | 401 kts | 279° |
| 2026-05-04 02:09 | 33.53803 | -113.25840 | 30056 ft | 402 kts | 279° |
| 2026-05-04 02:09 | 33.54405 | -113.29117 | 30549 ft | 401 kts | 279° |
| 2026-05-04 02:09 | 33.55004 | -113.32376 | 31085 ft | 399 kts | 279° |
| 2026-05-04 02:09 | 33.55600 | -113.35625 | 31590 ft | 398 kts | 279° |
| 2026-05-04 02:10 | 33.56192 | -113.38859 | 32056 ft | 396 kts | 279° |
| 2026-05-04 02:10 | 33.56781 | -113.42084 | 32501 ft | 396 kts | 279° |
| 2026-05-04 02:10 | 33.57360 | -113.45252 | 33385 ft | 391 kts | 278° |
| 2026-05-04 02:10 | 33.57936 | -113.48409 | 34141 ft | 383 kts | 278° |
| 2026-05-04 02:11 | 33.58500 | -113.51504 | 34737 ft | 377 kts | 278° |
| 2026-05-04 02:11 | 33.59066 | -113.54564 | 35131 ft | 375 kts | 278° |
| 2026-05-04 02:11 | 33.59637 | -113.57614 | 35455 ft | 375 kts | 278° |
| 2026-05-04 02:11 | 33.60207 | -113.60664 | 35789 ft | 374 kts | 278° |
| 2026-05-04 02:12 | 33.60773 | -113.63702 | 36135 ft | 372 kts | 278° |
| 2026-05-04 02:12 | 33.61336 | -113.66725 | 36487 ft | 371 kts | 278° |
| 2026-05-04 02:12 | 33.61896 | -113.69740 | 36818 ft | 369 kts | 278° |
| 2026-05-04 02:12 | 33.62453 | -113.72741 | 37120 ft | 368 kts | 278° |
| 2026-05-04 02:13 | 33.63007 | -113.75731 | 37413 ft | 366 kts | 277° |
| 2026-05-04 02:13 | 33.63560 | -113.78728 | 37534 ft | 369 kts | 277° |
| 2026-05-04 02:13 | 33.64114 | -113.81733 | 37745 ft | 368 kts | 277° |
| 2026-05-04 02:13 | 33.64667 | -113.84729 | 38025 ft | 367 kts | 277° |
| 2026-05-04 02:14 | 33.65216 | -113.87708 | 38289 ft | 365 kts | 277° |
| 2026-05-04 02:14 | 33.65762 | -113.90682 | 38477 ft | 365 kts | 277° |
| 2026-05-04 02:14 | 33.66308 | -113.93654 | 38691 ft | 364 kts | 277° |
| 2026-05-04 02:14 | 33.66854 | -113.96624 | 38809 ft | 365 kts | 277° |
| 2026-05-04 02:15 | 33.67941 | -114.02556 | 38954 ft | 367 kts | 277° |
| 2026-05-04 02:15 | 33.69045 | -114.08568 | 39165 ft | 370 kts | 277° |
| 2026-05-04 02:16 | 33.70148 | -114.14647 | 39372 ft | 373 kts | 277° |
| 2026-05-04 02:16 | 33.70700 | -114.17687 | 39525 ft | 373 kts | 277° |
| 2026-05-04 02:16 | 33.71253 | -114.20740 | 39661 ft | 374 kts | 277° |
| 2026-05-04 02:17 | 33.72355 | -114.26824 | 39748 ft | 374 kts | 277° |
| 2026-05-04 02:17 | 33.73460 | -114.32940 | 39750 ft | 374 kts | 277° |
| 2026-05-04 02:18 | 33.74563 | -114.39057 | 39743 ft | 373 kts | 276° |
| 2026-05-04 02:18 | 33.75650 | -114.45121 | 39745 ft | 374 kts | 277° |
| 2026-05-04 02:19 | 33.76743 | -114.51237 | 39748 ft | 374 kts | 277° |
| 2026-05-04 02:19 | 33.77465 | -114.57384 | 39742 ft | 370 kts | 271° |
| 2026-05-04 02:20 | 33.77867 | -114.63540 | 39731 ft | 369 kts | 270° |
| 2026-05-04 02:20 | 33.78216 | -114.69709 | 39745 ft | 370 kts | 270° |
| 2026-05-04 02:21 | 33.78561 | -114.75889 | 39747 ft | 370 kts | 270° |
| 2026-05-04 02:21 | 33.78911 | -114.82072 | 39750 ft | 370 kts | 270° |
| 2026-05-04 02:22 | 33.79261 | -114.88255 | 39742 ft | 371 kts | 270° |
| 2026-05-04 02:22 | 33.79608 | -114.94401 | 39750 ft | 371 kts | 270° |
| 2026-05-04 02:23 | 33.79953 | -115.00595 | 39740 ft | 371 kts | 270° |
| 2026-05-04 02:23 | 33.80293 | -115.06794 | 39757 ft | 373 kts | 270° |
| 2026-05-04 02:24 | 33.80630 | -115.13020 | 39756 ft | 374 kts | 270° |
| 2026-05-04 02:24 | 33.80969 | -115.19267 | 39786 ft | 374 kts | 270° |
| 2026-05-04 02:25 | 33.81304 | -115.25474 | 39752 ft | 370 kts | 270° |
| 2026-05-04 02:25 | 33.81630 | -115.31604 | 39759 ft | 369 kts | 270° |
| 2026-05-04 02:26 | 33.81954 | -115.37780 | 39756 ft | 370 kts | 270° |
| 2026-05-04 02:26 | 33.82402 | -115.43969 | 39756 ft | 374 kts | 274° |
| 2026-05-04 02:27 | 33.83788 | -115.50054 | 39761 ft | 381 kts | 282° |
| 2026-05-04 02:27 | 33.85662 | -115.56042 | 39760 ft | 383 kts | 283° |
| 2026-05-04 02:28 | 33.87612 | -115.62008 | 39765 ft | 383 kts | 283° |
| 2026-05-04 02:28 | 33.89549 | -115.67961 | 39760 ft | 385 kts | 284° |
| 2026-05-04 02:29 | 33.91483 | -115.73974 | 39761 ft | 386 kts | 284° |
| 2026-05-04 02:29 | 33.93411 | -115.79993 | 39778 ft | 383 kts | 283° |
| 2026-05-04 02:30 | 33.95320 | -115.85969 | 39777 ft | 382 kts | 283° |
| 2026-05-04 02:30 | 33.97223 | -115.91941 | 39785 ft | 382 kts | 283° |
| 2026-05-04 02:31 | 33.99124 | -115.97917 | 39797 ft | 383 kts | 283° |
| 2026-05-04 02:31 | 34.01014 | -116.03871 | 39813 ft | 383 kts | 283° |
| 2026-05-04 02:32 | 34.02920 | -116.09876 | 39825 ft | 383 kts | 283° |
| 2026-05-04 02:32 | 34.04820 | -116.15879 | 39835 ft | 383 kts | 283° |
| 2026-05-04 02:33 | 34.06718 | -116.21889 | 39849 ft | 382 kts | 282° |
| 2026-05-04 02:33 | 34.08598 | -116.27846 | 39803 ft | 379 kts | 282° |
| 2026-05-04 02:34 | 34.10476 | -116.33797 | 39796 ft | 379 kts | 282° |
| 2026-05-04 02:34 | 34.12349 | -116.39749 | 39794 ft | 379 kts | 282° |
| 2026-05-04 02:35 | 34.14208 | -116.45703 | 39793 ft | 379 kts | 282° |
| 2026-05-04 02:35 | 34.16066 | -116.51664 | 39790 ft | 379 kts | 282° |
| 2026-05-04 02:36 | 34.17912 | -116.57582 | 39748 ft | 379 kts | 282° |
| 2026-05-04 02:36 | 34.19777 | -116.63579 | 39834 ft | 385 kts | 282° |
| 2026-05-04 02:37 | 34.21654 | -116.69604 | 39803 ft | 380 kts | 282° |
| 2026-05-04 02:37 | 34.23511 | -116.75565 | 39839 ft | 379 kts | 282° |
| 2026-05-04 02:38 | 34.25355 | -116.81544 | 39821 ft | 380 kts | 282° |
| 2026-05-04 02:38 | 34.27202 | -116.87539 | 39839 ft | 381 kts | 281° |
| 2026-05-04 02:39 | 34.29056 | -116.93560 | 39850 ft | 383 kts | 282° |
| 2026-05-04 02:39 | 34.30918 | -116.99615 | 39868 ft | 384 kts | 282° |
| 2026-05-04 02:40 | 34.32767 | -117.05635 | 39908 ft | 384 kts | 282° |
| 2026-05-04 02:40 | 34.34623 | -117.11686 | 39886 ft | 383 kts | 282° |
| 2026-05-04 02:41 | 34.36473 | -117.17734 | 39876 ft | 383 kts | 281° |
| 2026-05-04 02:41 | 34.38324 | -117.23800 | 39911 ft | 384 kts | 281° |
| 2026-05-04 02:42 | 34.40173 | -117.29872 | 39904 ft | 384 kts | 281° |
| 2026-05-04 02:42 | 34.42020 | -117.35947 | 39890 ft | 384 kts | 281° |
| 2026-05-04 02:43 | 34.43865 | -117.42028 | 39884 ft | 384 kts | 281° |
| 2026-05-04 02:43 | 34.45706 | -117.48113 | 39982 ft | 385 kts | 281° |
| 2026-05-04 02:44 | 34.47538 | -117.54185 | 39926 ft | 387 kts | 281° |
| 2026-05-04 02:44 | 34.49386 | -117.60317 | 39923 ft | 387 kts | 281° |
| 2026-05-04 02:45 | 34.51232 | -117.66449 | 39904 ft | 387 kts | 281° |
| 2026-05-04 02:45 | 34.53074 | -117.72584 | 39907 ft | 387 kts | 281° |
| 2026-05-04 02:46 | 34.54601 | -117.77682 | 39904 ft | 387 kts | 281° |
| 2026-05-04 02:46 | 34.56434 | -117.83813 | 39910 ft | 387 kts | 281° |
| 2026-05-04 02:47 | 34.58265 | -117.89952 | 39940 ft | 387 kts | 281° |
| 2026-05-04 02:47 | 34.60101 | -117.96130 | 39928 ft | 391 kts | 281° |
| 2026-05-04 02:48 | 34.61948 | -118.02348 | 39924 ft | 392 kts | 281° |
| 2026-05-04 02:48 | 34.64300 | -118.08372 | 39938 ft | 405 kts | 290° |
| 2026-05-04 02:49 | 34.67329 | -118.14170 | 39933 ft | 407 kts | 292° |
| 2026-05-04 02:49 | 34.70467 | -118.19905 | 39936 ft | 407 kts | 292° |
| 2026-05-04 02:50 | 34.73604 | -118.25636 | 39933 ft | 408 kts | 293° |
| 2026-05-04 02:50 | 34.76758 | -118.31454 | 39935 ft | 415 kts | 293° |
| 2026-05-04 02:51 | 34.79934 | -118.37324 | 39938 ft | 415 kts | 292° |
| 2026-05-04 02:51 | 34.83082 | -118.43140 | 39935 ft | 412 kts | 292° |
| 2026-05-04 02:52 | 34.86226 | -118.48971 | 39926 ft | 411 kts | 292° |
| 2026-05-04 02:52 | 34.89363 | -118.54807 | 39950 ft | 411 kts | 292° |
| 2026-05-04 02:53 | 34.92492 | -118.60636 | 39943 ft | 411 kts | 292° |
| 2026-05-04 02:53 | 34.95621 | -118.66473 | 39958 ft | 411 kts | 292° |
| 2026-05-04 02:54 | 34.98750 | -118.72325 | 39945 ft | 412 kts | 292° |
| 2026-05-04 02:54 | 35.01886 | -118.78192 | 39946 ft | 413 kts | 292° |
| 2026-05-04 02:55 | 35.06624 | -118.87092 | 39926 ft | 422 kts | 293° |
| 2026-05-04 02:56 | 35.09839 | -118.93135 | 39924 ft | 425 kts | 293° |
| 2026-05-04 02:56 | 35.13064 | -118.99190 | 39922 ft | 424 kts | 293° |
| 2026-05-04 02:57 | 35.16274 | -119.05233 | 39906 ft | 424 kts | 293° |
| 2026-05-04 02:57 | 35.19463 | -119.11260 | 39915 ft | 426 kts | 294° |
| 2026-05-04 02:58 | 35.22705 | -119.17412 | 39906 ft | 435 kts | 294° |
| 2026-05-04 02:58 | 35.26001 | -119.23663 | 39905 ft | 437 kts | 294° |
| 2026-05-04 02:59 | 35.29302 | -119.29915 | 39905 ft | 436 kts | 294° |
| 2026-05-04 02:59 | 35.32591 | -119.36165 | 39905 ft | 436 kts | 294° |
| 2026-05-04 03:00 | 35.35855 | -119.42390 | 39927 ft | 439 kts | 295° |
| 2026-05-04 03:00 | 35.39164 | -119.48709 | 39931 ft | 441 kts | 295° |
| 2026-05-04 03:01 | 35.42476 | -119.55041 | 39941 ft | 441 kts | 295° |
| 2026-05-04 03:01 | 35.45781 | -119.61372 | 39939 ft | 441 kts | 295° |
| 2026-05-04 03:02 | 35.49085 | -119.67715 | 39942 ft | 441 kts | 295° |
| 2026-05-04 03:02 | 35.52387 | -119.74064 | 39952 ft | 441 kts | 295° |
| 2026-05-04 03:03 | 35.55685 | -119.80418 | 39949 ft | 441 kts | 295° |
| 2026-05-04 03:03 | 35.58981 | -119.86779 | 39963 ft | 441 kts | 295° |
| 2026-05-04 03:04 | 35.62253 | -119.93155 | 39980 ft | 439 kts | 292° |
| 2026-05-04 03:04 | 35.64609 | -119.99871 | 39975 ft | 424 kts | 279° |
| 2026-05-04 03:05 | 35.65653 | -120.06950 | 39991 ft | 419 kts | 273° |
| 2026-05-04 03:05 | 35.66360 | -120.14065 | 39985 ft | 418 kts | 272° |
| 2026-05-04 03:06 | 35.67013 | -120.21129 | 40000 ft | 418 kts | 272° |
| 2026-05-04 03:06 | 35.67686 | -120.28245 | 40014 ft | 418 kts | 272° |
| 2026-05-04 03:07 | 35.68844 | -120.35290 | 40029 ft | 426 kts | 283° |
| 2026-05-04 03:07 | 35.71212 | -120.42051 | 40065 ft | 432 kts | 288° |
| 2026-05-04 03:08 | 35.73746 | -120.48681 | 40049 ft | 431 kts | 288° |
| 2026-05-04 03:08 | 35.76300 | -120.55366 | 40055 ft | 431 kts | 288° |
| 2026-05-04 03:09 | 35.78847 | -120.62053 | 40036 ft | 431 kts | 288° |
| 2026-05-04 03:09 | 35.81398 | -120.68761 | 40033 ft | 431 kts | 288° |
| 2026-05-04 03:10 | 35.83937 | -120.75454 | 40042 ft | 431 kts | 288° |
| 2026-05-04 03:10 | 35.86457 | -120.82112 | 40022 ft | 431 kts | 288° |
| 2026-05-04 03:11 | 35.88992 | -120.88821 | 40020 ft | 432 kts | 288° |
| 2026-05-04 03:11 | 35.90254 | -120.92164 | 39708 ft | 428 kts | 288° |
| 2026-05-04 03:11 | 35.91508 | -120.95489 | 39104 ft | 427 kts | 287° |
| 2026-05-04 03:11 | 35.92757 | -120.98810 | 38400 ft | 427 kts | 287° |
| 2026-05-04 03:12 | 35.94006 | -121.02132 | 37623 ft | 427 kts | 287° |
| 2026-05-04 03:12 | 35.95257 | -121.05463 | 36840 ft | 427 kts | 287° |
| 2026-05-04 03:12 | 35.96506 | -121.08791 | 36143 ft | 428 kts | 286° |
| 2026-05-04 03:12 | 35.97756 | -121.12127 | 35398 ft | 428 kts | 286° |
| 2026-05-04 03:13 | 35.99005 | -121.15460 | 34637 ft | 428 kts | 285° |
| 2026-05-04 03:13 | 36.00250 | -121.18791 | 33863 ft | 428 kts | 285° |
| 2026-05-04 03:13 | 36.01498 | -121.22135 | 32923 ft | 429 kts | 285° |
| 2026-05-04 03:13 | 36.02749 | -121.25493 | 31987 ft | 431 kts | 285° |
| 2026-05-04 03:14 | 36.04005 | -121.28864 | 31079 ft | 433 kts | 286° |
| 2026-05-04 03:14 | 36.05270 | -121.32195 | 30164 ft | 437 kts | 288° |
| 2026-05-04 03:14 | 36.06942 | -121.35454 | 29093 ft | 452 kts | 300° |
| 2026-05-04 03:14 | 36.09180 | -121.38161 | 28524 ft | 461 kts | 314° |
| 2026-05-04 03:15 | 36.11832 | -121.40418 | 27877 ft | 462 kts | 320° |
| 2026-05-04 03:15 | 36.14549 | -121.42529 | 27233 ft | 460 kts | 321° |
| 2026-05-04 03:15 | 36.17260 | -121.44618 | 26567 ft | 457 kts | 322° |
| 2026-05-04 03:15 | 36.19943 | -121.46697 | 25943 ft | 453 kts | 322° |
| 2026-05-04 03:16 | 36.22603 | -121.48768 | 25311 ft | 451 kts | 323° |
| 2026-05-04 03:16 | 36.25250 | -121.50834 | 24676 ft | 448 kts | 324° |
| 2026-05-04 03:16 | 36.27879 | -121.52893 | 24061 ft | 447 kts | 325° |
| 2026-05-04 03:16 | 36.30502 | -121.54950 | 23381 ft | 445 kts | 326° |
| 2026-05-04 03:17 | 36.33110 | -121.56993 | 22701 ft | 441 kts | 326° |
| 2026-05-04 03:17 | 36.35692 | -121.59018 | 22150 ft | 435 kts | 326° |
| 2026-05-04 03:17 | 36.38210 | -121.60993 | 21995 ft | 420 kts | 326° |
| 2026-05-04 03:17 | 36.40631 | -121.62895 | 21861 ft | 405 kts | 326° |
| 2026-05-04 03:18 | 36.42941 | -121.64712 | 21729 ft | 391 kts | 326° |
| 2026-05-04 03:18 | 36.45201 | -121.66492 | 21590 ft | 379 kts | 326° |
| 2026-05-04 03:18 | 36.47395 | -121.68220 | 21292 ft | 371 kts | 326° |
| 2026-05-04 03:18 | 36.49575 | -121.69941 | 20812 ft | 371 kts | 326° |
| 2026-05-04 03:19 | 36.51747 | -121.71659 | 20379 ft | 369 kts | 326° |
| 2026-05-04 03:19 | 36.53904 | -121.73364 | 19959 ft | 366 kts | 326° |
| 2026-05-04 03:19 | 36.56050 | -121.75059 | 19546 ft | 364 kts | 326° |
| 2026-05-04 03:19 | 36.58184 | -121.76747 | 19117 ft | 363 kts | 326° |
| 2026-05-04 03:20 | 36.60309 | -121.78429 | 18706 ft | 361 kts | 326° |
| 2026-05-04 03:20 | 36.62425 | -121.80105 | 18293 ft | 359 kts | 326° |
| 2026-05-04 03:20 | 36.64527 | -121.81771 | 17883 ft | 356 kts | 326° |
| 2026-05-04 03:20 | 36.66612 | -121.83425 | 17440 ft | 354 kts | 326° |
| 2026-05-04 03:21 | 36.68682 | -121.85068 | 17025 ft | 352 kts | 326° |
| 2026-05-04 03:21 | 36.70735 | -121.86699 | 16636 ft | 349 kts | 326° |
| 2026-05-04 03:21 | 36.72781 | -121.88315 | 16254 ft | 346 kts | 327° |
| 2026-05-04 03:21 | 36.74953 | -121.89582 | 15860 ft | 345 kts | 342° |
| 2026-05-04 03:22 | 36.77272 | -121.90337 | 15451 ft | 343 kts | 346° |
| 2026-05-04 03:22 | 36.79600 | -121.90978 | 15063 ft | 341 kts | 347° |
| 2026-05-04 03:22 | 36.81916 | -121.91608 | 14666 ft | 339 kts | 347° |
| 2026-05-04 03:22 | 36.84215 | -121.92239 | 14288 ft | 337 kts | 347° |
| 2026-05-04 03:23 | 36.86469 | -121.92863 | 13905 ft | 335 kts | 347° |
| 2026-05-04 03:23 | 36.88745 | -121.93496 | 13501 ft | 333 kts | 347° |
| 2026-05-04 03:23 | 36.90995 | -121.94124 | 13119 ft | 330 kts | 347° |
| 2026-05-04 03:23 | 36.93228 | -121.94748 | 12734 ft | 327 kts | 347° |
| 2026-05-04 03:24 | 36.95445 | -121.95369 | 12360 ft | 326 kts | 347° |
| 2026-05-04 03:24 | 36.97626 | -121.96125 | 11995 ft | 325 kts | 342° |
| 2026-05-04 03:24 | 36.99775 | -121.96999 | 11627 ft | 324 kts | 341° |
| 2026-05-04 03:24 | 37.01916 | -121.97872 | 11268 ft | 323 kts | 342° |
| 2026-05-04 03:25 | 37.04049 | -121.98728 | 10901 ft | 321 kts | 342° |
| 2026-05-04 03:25 | 37.06176 | -121.99571 | 10540 ft | 320 kts | 342° |
| 2026-05-04 03:25 | 37.08282 | -122.00401 | 10329 ft | 311 kts | 342° |
| 2026-05-04 03:25 | 37.10310 | -122.01196 | 10201 ft | 300 kts | 342° |
| 2026-05-04 03:26 | 37.12247 | -122.01956 | 10075 ft | 291 kts | 342° |
| 2026-05-04 03:26 | 37.14173 | -122.02711 | 9802 ft | 293 kts | 342° |
| 2026-05-04 03:26 | 37.16162 | -122.03491 | 9494 ft | 303 kts | 342° |
| 2026-05-04 03:26 | 37.18177 | -122.04281 | 9195 ft | 304 kts | 342° |
| 2026-05-04 03:27 | 37.20184 | -122.05068 | 8970 ft | 297 kts | 343° |
| 2026-05-04 03:27 | 37.22132 | -122.05830 | 8749 ft | 290 kts | 343° |
| 2026-05-04 03:27 | 37.24054 | -122.06584 | 8474 ft | 289 kts | 343° |
| 2026-05-04 03:27 | 37.25969 | -122.07335 | 8203 ft | 288 kts | 343° |
| 2026-05-04 03:28 | 37.27866 | -122.08079 | 8018 ft | 284 kts | 343° |
| 2026-05-04 03:28 | 37.29748 | -122.08827 | 7679 ft | 283 kts | 343° |
| 2026-05-04 03:28 | 37.31628 | -122.09567 | 7240 ft | 284 kts | 343° |
| 2026-05-04 03:28 | 37.33515 | -122.10308 | 6816 ft | 284 kts | 343° |
| 2026-05-04 03:29 | 37.35405 | -122.11053 | 6410 ft | 283 kts | 343° |
| 2026-05-04 03:29 | 37.37285 | -122.11794 | 6016 ft | 281 kts | 343° |
| 2026-05-04 03:29 | 37.39146 | -122.12501 | 5633 ft | 278 kts | 345° |
| 2026-05-04 03:29 | 37.40991 | -122.13123 | 5225 ft | 277 kts | 345° |
| 2026-05-04 03:30 | 37.42848 | -122.13739 | 4900 ft | 273 kts | 345° |
| 2026-05-04 03:30 | 37.44658 | -122.14346 | 4420 ft | 267 kts | 344° |
| 2026-05-04 03:30 | 37.46428 | -122.14944 | 3852 ft | 262 kts | 343° |
| 2026-05-04 03:30 | 37.48177 | -122.15514 | 3291 ft | 256 kts | 342° |
| 2026-05-04 03:31 | 37.49854 | -122.16057 | 3010 ft | 239 kts | 343° |
| 2026-05-04 03:31 | 37.51382 | -122.16554 | 2987 ft | 215 kts | 342° |
| 2026-05-04 03:31 | 37.52689 | -122.17150 | 2999 ft | 184 kts | 329° |
| 2026-05-04 03:31 | 37.53647 | -122.17996 | 2975 ft | 154 kts | 313° |
| 2026-05-04 03:32 | 37.54277 | -122.18959 | 2974 ft | 134 kts | 298° |
| 2026-05-04 03:32 | 37.54732 | -122.19971 | 2988 ft | 132 kts | 294° |
| 2026-05-04 03:32 | 37.55169 | -122.20995 | 2995 ft | 133 kts | 294° |
| 2026-05-04 03:32 | 37.55457 | -122.21679 | 2993 ft | 133 kts | 294° |
| 2026-05-04 03:33 | 37.55888 | -122.22713 | 2995 ft | 133 kts | 293° |
| 2026-05-04 03:33 | 37.56325 | -122.23748 | 2931 ft | 137 kts | 294° |
| 2026-05-04 03:33 | 37.56778 | -122.24819 | 2608 ft | 138 kts | 294° |
| 2026-05-04 03:33 | 37.57230 | -122.25875 | 2307 ft | 136 kts | 294° |
| 2026-05-04 03:34 | 37.57667 | -122.26925 | 1993 ft | 135 kts | 294° |
| 2026-05-04 03:34 | 37.58100 | -122.27991 | 1628 ft | 138 kts | 294° |
| 2026-05-04 03:34 | 37.58532 | -122.29082 | 1262 ft | 140 kts | 293° |
| 2026-05-04 03:34 | 37.58974 | -122.30141 | 1011 ft | 134 kts | 296° |
| 2026-05-04 03:35 | 37.59435 | -122.31143 | 736 ft | 129 kts | 296° |
| 2026-05-04 03:35 | 37.59849 | -122.32133 | 636 ft | 128 kts | 290° |
| 2026-05-04 03:35 | 37.60285 | -122.33141 | 468 ft | 131 kts | 296° |
| 2026-05-04 03:35 | 37.60704 | -122.34123 | 348 ft | 127 kts | 288° |
| 2026-05-04 03:36 | 37.61108 | -122.35126 | 213 ft | 131 kts | 295° |
| 2026-05-04 03:36 | 37.61542 | -122.36157 | 37 ft | 134 kts | 294° |
| 2026-05-04 03:36 | 37.61928 | -122.37092 | 27 ft | 102 kts | 296° |
| 2026-05-04 03:36 | 37.62204 | -122.37749 | 26 ft | 52 kts | 297° |
| 2026-05-04 03:37 | 37.62229 | -122.37889 | 27 ft | 9 kts | 267° |
| 2026-05-04 03:37 | 37.62228 | -122.37977 | 27 ft | 11 kts | 269° |
| 2026-05-04 03:37 | 37.62228 | -122.38088 | 27 ft | 14 kts | 271° |
| 2026-05-04 03:37 | 37.62228 | -122.38217 | 27 ft | 16 kts | 266° |
| 2026-05-04 03:38 | 37.62222 | -122.38358 | 27 ft | 17 kts | 267° |
| 2026-05-04 03:38 | 37.62216 | -122.38520 | 27 ft | 19 kts | 267° |
| 2026-05-04 03:38 | 37.62235 | -122.38663 | 27 ft | 17 kts | 292° |
| 2026-05-04 03:38 | 37.62273 | -122.38785 | 27 ft | 13 kts | 261° |
| 2026-05-04 03:39 | 37.62207 | -122.38872 | 27 ft | 15 kts | 208° |
| 2026-05-04 03:39 | 37.62155 | -122.38907 | 27 ft | 1 kts | 220° |
| 2026-05-04 03:39 | 37.62138 | -122.38921 | 27 ft | 0 kts | 210° |
| 2026-05-04 03:40 | 37.62136 | -122.38923 | 27 ft | 0 kts | 210° |